Time;durP1;ratioP1;P1;durP2;ratioP2;P2;SDS_P1;SDS_P2;PMS_P1;PMS_P2;Temp;Humidity;BMP_temperature;BMP_pressure;BME280_temperature;BME280_humidity;BME280_pressure;Samples;Min_cycle;Max_cycle;Signal;HPM_P1;HPM_P2
2022/04/06 00:03:48;;;;;;;23.73;10.27;;;9.00;99.90;;;;;;4996513;28;20072;-83
2022/04/06 00:06:16;;;;;;;21.02;9.45;;;9.50;99.90;;;;;;5004947;28;20030;-83
2022/04/06 00:08:42;;;;;;;24.15;9.27;;;9.40;99.90;;;;;;5005036;28;20101;-83
2022/04/06 00:11:27;;;;;;;30.42;10.43;;;9.40;99.90;;;;;;5003618;28;20073;-83
2022/04/06 00:13:56;;;;;;;20.63;9.20;;;9.60;99.90;;;;;;4988131;28;20097;-83
2022/04/06 00:16:33;;;;;;;;;;;;;;;;;;;;;
2022/04/06 00:19:06;;;;;;;24.52;10.07;;;9.30;99.90;;;;;;5002758;28;20116;-82
2022/04/06 00:21:42;;;;;;;;;;;;;;;;;;;;;
2022/04/06 00:24:33;;;;;;;;;;;;;;;;;;;;;
2022/04/06 00:27:06;;;;;;;24.20;8.68;;;9.00;99.90;;;;;;5004255;28;20056;-82
2022/04/06 00:30:09;;;;;;;20.73;8.68;;;9.60;99.90;;;;;;5006454;28;20041;-83
2022/04/06 00:32:48;;;;;;;22.33;8.93;;;9.10;99.90;;;;;;5005802;28;20052;-83
2022/04/06 00:35:34;;;;;;;24.10;8.18;;;9.20;99.90;;;;;;5004041;28;20029;-83
2022/04/06 00:38:09;;;;;;;19.23;9.32;;;9.20;99.90;;;;;;5018268;28;20073;-83
2022/04/06 00:41:01;;;;;;;;;;;;;;;;;;;;;
2022/04/06 00:43:36;;;;;;;18.10;8.30;;;9.50;99.90;;;;;;5001044;28;20038;-83
2022/04/06 00:46:07;;;;;;;25.48;10.15;;;9.30;99.90;;;;;;4992003;28;20046;-84
2022/04/06 00:48:51;;;;;;;22.67;9.93;;;9.60;99.90;;;;;;5025200;28;20057;-83
2022/04/06 00:51:33;;;;;;;;;;;;;;;;;;;;;
2022/04/06 00:54:34;;;;;;;24.67;9.60;;;9.70;99.90;;;;;;5031128;28;20048;-83
2022/04/06 00:57:02;;;;;;;19.73;10.90;;;9.30;99.90;;;;;;5029982;28;20089;-83
2022/04/06 00:59:49;;;;;;;26.30;10.20;;;9.30;99.90;;;;;;5004805;28;20058;-83
2022/04/06 01:02:30;;;;;;;;;;;;;;;;;;;;;
2022/04/06 01:05:15;;;;;;;21.35;11.05;;;9.20;99.90;;;;;;5017470;28;20133;-83
2022/04/06 01:08:01;;;;;;;25.85;9.93;;;9.40;99.90;;;;;;5020667;28;20460;-83
2022/04/06 01:10:29;;;;;;;;;;;9.30;99.90;;;;;;5003965;28;20684;-83
2022/04/06 01:13:01;;;;;;;24.17;10.55;;;9.30;99.90;;;;;;5002924;28;20026;-83
2022/04/06 01:15:28;;;;;;;21.00;10.63;;;9.40;99.90;;;;;;5003052;28;20042;-83
2022/04/06 01:17:56;;;;;;;20.45;9.93;;;9.90;99.90;;;;;;4999628;28;20039;-83
2022/04/06 01:21:00;;;;;;;26.95;9.50;;;9.30;99.90;;;;;;5004505;28;20065;-83
2022/04/06 01:23:23;;;;;;;19.20;10.23;;;9.30;99.90;;;;;;5007098;28;20045;-83
2022/04/06 01:25:51;;;;;;;21.80;9.93;;;9.10;99.90;;;;;;5017937;28;20072;-83
2022/04/06 01:28:24;;;;;;;27.05;9.93;;;9.30;99.90;;;;;;5004459;28;20401;-83
2022/04/06 01:30:55;;;;;;;27.85;10.38;;;9.30;99.90;;;;;;5001802;28;20515;-83
2022/04/06 01:33:52;;;;;;;23.55;9.63;;;9.70;99.90;;;;;;5005085;28;20042;-83
2022/04/06 01:36:21;;;;;;;21.67;8.68;;;10.00;99.90;;;;;;5000995;28;20440;-83
2022/04/06 01:38:55;;;;;;;20.55;8.82;;;9.30;99.90;;;;;;5004794;28;20099;-83
2022/04/06 01:41:59;;;;;;;;;;;;;;;;;;;;;
2022/04/06 01:44:29;;;;;;;22.15;10.13;;;9.70;99.90;;;;;;5003443;28;20131;-83
2022/04/06 01:47:09;;;;;;;20.10;8.43;;;9.80;99.90;;;;;;5000568;28;20038;-83
2022/04/06 01:52:27;;;;;;;18.88;7.75;;;9.30;99.90;;;;;;5004209;28;20073;-82
2022/04/06 01:55:03;;;;;;;17.42;8.20;;;9.70;99.90;;;;;;4989476;28;20046;-83
2022/04/06 01:57:38;;;;;;;16.38;7.32;;;9.40;99.90;;;;;;5020782;28;20046;-82
2022/04/06 02:00:16;;;;;;;21.88;7.72;;;9.60;99.90;;;;;;4989487;28;20056;-83
2022/04/06 02:02:56;;;;;;;20.55;7.63;;;9.30;99.90;;;;;;5010628;28;20041;-82
2022/04/06 02:05:32;;;;;;;17.58;6.78;;;9.40;99.90;;;;;;5006894;28;20038;-83
2022/04/06 02:08:01;;;;;;;17.48;6.53;;;9.30;99.90;;;;;;5022838;28;20134;-83
2022/04/06 02:10:46;;;;;;;19.02;6.38;;;9.30;99.90;;;;;;5006217;28;20123;-83
2022/04/06 02:13:21;;;;;;;17.02;6.45;;;9.40;99.90;;;;;;4989046;28;20045;-82
2022/04/06 02:15:50;;;;;;;15.32;6.88;;;9.40;99.90;;;;;;5002195;28;20073;-82
2022/04/06 02:18:29;;;;;;;;;;;;;;;;;;;;;
2022/04/06 02:20:57;;;;;;;22.95;6.15;;;9.60;99.90;;;;;;5003594;28;20046;-83
2022/04/06 02:23:49;;;;;;;19.35;7.43;;;10.00;99.90;;;;;;5002744;28;20567;-83
2022/04/06 02:26:25;;;;;;;;;;;;;;;;;;;;;
2022/04/06 02:29:05;;;;;;;15.05;4.07;;;9.30;99.90;;;;;;5003744;28;20034;-83
2022/04/06 02:31:52;;;;;;;12.95;4.38;;;9.40;99.90;;;;;;4998541;28;20040;-83
2022/04/06 02:34:18;;;;;;;19.27;6.15;;;9.40;99.90;;;;;;5004137;28;20056;-83
2022/04/06 02:36:56;;;;;;;19.90;5.87;;;9.40;99.90;;;;;;5007724;28;20073;-83
2022/04/06 02:39:42;;;;;;;15.30;5.47;;;9.40;99.90;;;;;;5002024;28;20042;-83
2022/04/06 02:42:50;;;;;;;13.65;5.35;;;9.30;99.90;;;;;;5004291;28;20076;-82
2022/04/06 02:45:22;;;;;;;13.38;5.35;;;9.60;99.90;;;;;;5004036;28;20634;-82
2022/04/06 02:47:47;;;;;;;14.02;5.47;;;9.30;99.90;;;;;;4986056;28;20056;-83
2022/04/06 02:50:26;;;;;;;14.90;4.57;;;9.40;99.90;;;;;;4985654;28;21672;-83
2022/04/06 02:53:10;;;;;;;;;;;;;;;;;;;;;
2022/04/06 02:55:41;;;;;;;10.55;3.70;;;9.40;99.90;;;;;;5003442;28;20061;-83
2022/04/06 02:58:18;;;;;;;16.73;4.47;;;9.40;99.90;;;;;;5017952;28;20520;-83
2022/04/06 03:00:56;;;;;;;14.30;4.88;;;9.50;99.90;;;;;;4987855;28;20096;-83
2022/04/06 03:03:43;;;;;;;;;;;;;;;;;;;;;
2022/04/06 03:06:19;;;;;;;16.55;5.63;;;9.40;99.90;;;;;;5002509;28;20052;-83
2022/04/06 03:08:55;;;;;;;12.30;5.53;;;9.60;99.90;;;;;;5012817;28;20107;-83
2022/04/06 03:11:27;;;;;;;24.73;7.68;;;9.50;99.90;;;;;;5018468;28;20503;-83
2022/04/06 03:13:58;;;;;;;15.27;5.30;;;9.40;99.90;;;;;;5005296;28;20046;-83
2022/04/06 03:16:36;;;;;;;18.73;6.32;;;9.50;99.90;;;;;;5018420;28;20053;-83
2022/04/06 03:19:11;;;;;;;20.20;6.63;;;9.30;99.90;;;;;;5000849;28;20046;-83
2022/04/06 03:21:40;;;;;;;18.85;7.07;;;9.30;99.90;;;;;;4998814;28;20045;-83
2022/04/06 03:24:24;;;;;;;;;;;;;;;;;;;;;
2022/04/06 03:27:22;;;;;;;20.67;6.63;;;8.70;99.90;;;;;;5004197;28;20149;-83
2022/04/06 03:30:05;;;;;;;24.77;8.38;;;9.60;99.90;;;;;;4999894;28;20049;-82
2022/04/06 03:33:09;;;;;;;;;;;;;;;;;;;;;
2022/04/06 03:35:39;;;;;;;23.90;7.35;;;8.60;99.90;;;;;;4999485;28;20053;-83
2022/04/06 03:38:17;;;;;;;;;;;;;;;;;;;;;
2022/04/06 03:40:43;;;;;;;26.35;7.30;;;9.40;99.90;;;;;;5003728;28;20049;-83
2022/04/06 03:43:09;;;;;;;28.00;7.97;;;9.50;99.90;;;;;;4999556;28;20042;-83
2022/04/06 03:45:41;;;;;;;25.67;8.25;;;9.30;99.90;;;;;;5003067;28;20045;-83
2022/04/06 03:48:09;;;;;;;25.33;8.88;;;10.00;99.90;;;;;;5008065;28;20042;-83
2022/04/06 03:50:48;;;;;;;;;;;;;;;;;;;;;
2022/04/06 03:53:36;;;;;;;22.92;8.43;;;9.40;99.90;;;;;;5006704;28;20042;-83
2022/04/06 03:56:05;;;;;;;26.75;9.30;;;9.80;99.90;;;;;;4994270;28;20370;-83
2022/04/06 03:58:45;;;;;;;29.43;9.30;;;9.50;99.90;;;;;;4994371;28;20033;-83
2022/04/06 04:01:55;;;;;;;24.23;9.00;;;9.40;99.90;;;;;;5008239;28;20046;-82
2022/04/06 04:04:36;;;;;;;25.02;9.02;;;9.50;99.90;;;;;;5010899;28;20457;-83
2022/04/06 04:07:15;;;;;;;;;;;9.40;99.90;;;;;;5004394;28;20044;-84
2022/04/06 04:10:04;;;;;;;23.73;9.93;;;9.50;99.90;;;;;;5003615;28;19952;-83
2022/04/06 04:12:34;;;;;;;21.65;8.80;;;9.80;99.90;;;;;;5005272;28;20050;-83
2022/04/06 04:15:03;;;;;;;20.23;7.60;;;9.50;99.90;;;;;;4999219;28;20057;-83
2022/04/06 04:17:36;;;;;;;26.30;9.63;;;9.50;99.90;;;;;;4992464;28;20496;-83
2022/04/06 04:20:13;;;;;;;23.58;8.82;;;9.50;99.90;;;;;;5004894;28;20038;-84
2022/04/06 04:22:39;;;;;;;22.05;8.50;;;9.10;99.90;;;;;;5010054;28;20181;-84
2022/04/06 04:25:29;;;;;;;24.70;7.15;;;9.50;99.90;;;;;;5022871;28;20057;-84
2022/04/06 04:28:15;;;;;;;;;;;;;;;;;;;;;
2022/04/06 04:30:43;;;;;;;19.38;7.05;;;9.60;99.90;;;;;;5008023;28;20096;-82
2022/04/06 04:33:09;;;;;;;15.32;6.05;;;9.40;99.90;;;;;;5006864;28;20042;-81
2022/04/06 04:35:37;;;;;;;19.42;6.03;;;9.40;99.90;;;;;;5005956;28;20125;-79
2022/04/06 04:38:06;;;;;;;21.95;5.88;;;9.70;99.90;;;;;;5011881;28;20050;-82
2022/04/06 04:40:31;;;;;;;20.65;7.13;;;9.80;99.90;;;;;;4992091;28;20128;-82
2022/04/06 04:42:57;;;;;;;15.32;5.38;;;9.40;99.90;;;;;;5008870;28;20068;-81
2022/04/06 04:45:23;;;;;;;19.00;4.85;;;9.40;99.90;;;;;;5004205;28;20038;-81
2022/04/06 04:47:48;;;;;;;16.30;4.75;;;9.40;99.90;;;;;;5007441;28;20481;-80
2022/04/06 04:50:14;;;;;;;16.85;4.55;;;9.40;99.90;;;;;;5004598;28;20096;-80
2022/04/06 04:52:40;;;;;;;14.60;3.35;;;9.30;99.90;;;;;;5003827;28;20045;-80
2022/04/06 04:55:06;;;;;;;17.45;3.70;;;9.30;99.90;;;;;;5004687;28;20041;-81
2022/04/06 04:57:32;;;;;;;21.75;4.22;;;8.60;99.90;;;;;;4992671;28;20073;-81
2022/04/06 04:59:57;;;;;;;13.43;3.13;;;9.30;99.90;;;;;;5007026;28;20049;-81
2022/04/06 05:02:23;;;;;;;14.52;3.25;;;9.30;99.90;;;;;;5022262;28;20083;-81
2022/04/06 05:04:54;;;;;;;12.85;2.47;;;9.30;99.90;;;;;;5005071;28;20030;-82
2022/04/06 05:07:23;;;;;;;16.17;3.15;;;9.30;99.90;;;;;;4990668;28;20045;-81
2022/04/06 05:09:56;;;;;;;15.10;2.95;;;9.30;99.90;;;;;;5006733;28;20038;-81
2022/04/06 05:12:22;;;;;;;8.75;2.85;;;9.30;99.90;;;;;;5023817;28;20097;-82
2022/04/06 05:14:47;;;;;;;10.18;2.67;;;9.30;99.90;;;;;;5005949;28;20664;-82
2022/04/06 05:17:13;;;;;;;15.10;2.70;;;9.20;99.90;;;;;;4992483;28;20046;-82
2022/04/06 05:19:38;;;;;;;7.55;1.50;;;9.20;99.90;;;;;;5014828;28;20041;-83
2022/04/06 05:22:08;;;;;;;7.63;2.13;;;9.20;99.90;;;;;;5015696;28;20038;-82
2022/04/06 05:24:33;;;;;;;8.25;2.15;;;9.30;99.90;;;;;;5013187;28;20046;-82
2022/04/06 05:27:00;;;;;;;10.90;2.05;;;9.40;99.90;;;;;;5006233;28;20034;-81
2022/04/06 05:29:25;;;;;;;15.27;3.88;;;9.20;99.90;;;;;;5003948;28;20451;-81
2022/04/06 05:31:51;;;;;;;14.27;2.55;;;9.70;99.90;;;;;;5007277;28;20046;-82
2022/04/06 05:34:19;;;;;;;9.00;2.45;;;9.30;99.90;;;;;;5006743;28;20452;-81
2022/04/06 05:36:45;;;;;;;9.27;2.00;;;9.20;99.90;;;;;;5003613;28;20866;-81
2022/04/06 05:39:11;;;;;;;12.95;3.25;;;9.40;99.90;;;;;;5003382;28;20038;-81
2022/04/06 05:41:37;;;;;;;9.85;2.30;;;9.20;99.90;;;;;;5002513;28;20096;-81
2022/04/06 05:44:03;;;;;;;13.70;2.90;;;9.20;99.90;;;;;;4987651;28;20125;-81
2022/04/06 05:46:29;;;;;;;12.05;2.83;;;9.20;99.90;;;;;;5000828;28;20120;-81
2022/04/06 05:48:55;;;;;;;13.25;2.92;;;9.20;99.90;;;;;;5004498;28;20077;-81
2022/04/06 05:51:22;;;;;;;8.57;3.03;;;9.20;99.90;;;;;;5013691;28;20040;-81
2022/04/06 05:53:47;;;;;;;9.00;2.33;;;9.20;99.90;;;;;;5026624;28;20056;-80
2022/04/06 05:56:15;;;;;;;10.10;3.60;;;9.20;99.90;;;;;;5033422;28;20041;-82
2022/04/06 05:58:43;;;;;;;12.07;2.45;;;9.20;99.90;;;;;;5033748;28;20029;-82
2022/04/06 06:01:12;;;;;;;11.18;2.38;;;9.10;99.90;;;;;;5012762;28;20049;-83
2022/04/06 06:03:47;;;;;;;11.20;2.78;;;9.10;99.90;;;;;;5020830;28;20084;-83
2022/04/06 06:07:12;;;;;;;;;;;;;;;;;;;;;
2022/04/06 06:09:40;;;;;;;6.85;1.92;;;9.10;99.90;;;;;;5002950;28;20038;-83
2022/04/06 06:12:13;;;;;;;12.40;2.75;;;9.40;99.90;;;;;;4998615;28;20029;-83
2022/04/06 06:14:40;;;;;;;10.23;2.25;;;9.00;99.90;;;;;;5002984;28;20100;-83
2022/04/06 06:17:20;;;;;;;13.85;2.53;;;9.00;99.90;;;;;;5001740;28;20054;-83
2022/04/06 06:19:55;;;;;;;7.88;2.33;;;9.50;99.90;;;;;;5000291;28;20412;-83
2022/04/06 06:22:28;;;;;;;14.10;2.38;;;9.20;99.90;;;;;;5000277;28;20057;-83
2022/04/06 06:25:16;;;;;;;;;;;;;;;;;;;;;
2022/04/06 06:27:44;;;;;;;8.17;2.27;;;9.00;99.90;;;;;;5001412;28;20042;-80
2022/04/06 06:30:13;;;;;;;8.85;2.35;;;9.00;99.90;;;;;;5003244;28;20050;-83
2022/04/06 06:32:47;;;;;;;11.75;2.58;;;8.80;99.90;;;;;;5000954;28;20484;-83
2022/04/06 06:35:13;;;;;;;6.72;1.67;;;8.60;99.90;;;;;;5003198;28;20061;-82
2022/04/06 06:37:57;;;;;;;10.43;2.45;;;9.00;99.90;;;;;;5002238;28;20042;-83
2022/04/06 06:40:26;;;;;;;13.10;2.10;;;9.10;99.90;;;;;;5001870;28;20057;-81
2022/04/06 06:42:52;;;;;;;10.75;2.35;;;8.80;99.90;;;;;;5003081;28;20098;-81
2022/04/06 06:45:18;;;;;;;7.15;2.35;;;8.90;99.90;;;;;;5003427;28;20053;-81
2022/04/06 06:47:44;;;;;;;10.30;2.20;;;8.90;99.90;;;;;;5005047;28;20042;-83
2022/04/06 06:50:11;;;;;;;10.35;2.22;;;8.90;99.90;;;;;;5003714;28;20072;-83
2022/04/06 06:52:37;;;;;;;6.80;2.30;;;8.90;99.90;;;;;;5002051;28;20040;-80
2022/04/06 06:55:09;;;;;;;5.57;1.85;;;9.10;99.90;;;;;;5002351;28;20042;-83
2022/04/06 06:57:36;;;;;;;6.93;1.45;;;8.90;99.90;;;;;;5004044;28;20045;-81
2022/04/06 07:00:04;;;;;;;10.32;2.33;;;9.50;99.90;;;;;;4985829;28;20069;-83
2022/04/06 07:02:29;;;;;;;9.70;2.10;;;8.90;99.90;;;;;;5022633;28;20169;-81
2022/04/06 07:04:55;;;;;;;10.82;2.10;;;8.90;99.90;;;;;;5000695;28;20030;-80
2022/04/06 07:07:20;;;;;;;11.32;1.83;;;9.00;99.90;;;;;;5000382;28;20041;-83
2022/04/06 07:09:46;;;;;;;8.45;1.98;;;8.90;99.90;;;;;;5002065;28;20050;-82
2022/04/06 07:12:12;;;;;;;12.02;2.25;;;8.90;99.90;;;;;;5002759;28;20790;-82
2022/04/06 07:14:37;;;;;;;16.17;2.75;;;8.90;99.90;;;;;;5002284;28;20057;-83
2022/04/06 07:17:06;;;;;;;13.27;3.20;;;9.00;99.90;;;;;;5002204;28;20041;-83
2022/04/06 07:19:31;;;;;;;14.93;2.50;;;9.10;99.90;;;;;;5007625;28;20452;-83
2022/04/06 07:21:57;;;;;;;9.88;2.20;;;9.00;99.90;;;;;;5003939;28;20046;-83
2022/04/06 07:24:25;;;;;;;13.50;2.50;;;8.90;99.90;;;;;;5006078;28;20033;-82
2022/04/06 07:26:51;;;;;;;15.20;2.50;;;8.90;99.90;;;;;;5005932;28;20168;-82
2022/04/06 07:29:17;;;;;;;9.70;2.70;;;8.90;99.90;;;;;;5006887;28;20129;-82
2022/04/06 07:31:42;;;;;;;17.90;3.53;;;8.90;99.90;;;;;;5003074;28;20046;-82
2022/04/06 07:34:09;;;;;;;18.35;2.95;;;8.90;99.90;;;;;;5003909;28;20042;-83
2022/04/06 07:36:35;;;;;;;18.15;2.97;;;8.90;99.90;;;;;;4991537;28;20042;-83
2022/04/06 07:39:04;;;;;;;14.60;3.60;;;8.90;99.90;;;;;;5001325;28;20049;-82
2022/04/06 07:41:31;;;;;;;8.25;2.67;;;8.90;99.90;;;;;;5005696;28;20045;-83
2022/04/06 07:44:00;;;;;;;14.63;3.10;;;9.00;99.90;;;;;;5004415;28;20066;-82
2022/04/06 07:46:28;;;;;;;12.23;2.63;;;9.00;99.90;;;;;;5008143;28;20391;-83
2022/04/06 07:48:56;;;;;;;13.38;2.95;;;9.10;99.90;;;;;;5006828;28;20038;-83
2022/04/06 07:51:22;;;;;;;12.23;2.88;;;9.10;99.90;;;;;;5008324;28;20053;-83
2022/04/06 07:53:47;;;;;;;14.63;3.78;;;9.10;99.90;;;;;;5007049;28;20041;-81
2022/04/06 07:56:13;;;;;;;13.93;2.58;;;9.20;99.90;;;;;;5008452;28;20118;-83
2022/04/06 07:58:42;;;;;;;11.02;2.53;;;9.20;99.90;;;;;;4999144;28;20639;-83
2022/04/06 08:01:08;;;;;;;16.42;2.85;;;9.30;99.90;;;;;;5001812;28;20077;-83
2022/04/06 08:03:43;;;;;;;12.38;2.85;;;9.30;99.90;;;;;;5001355;28;20052;-81
2022/04/06 08:06:22;;;;;;;10.57;2.67;;;9.30;99.90;;;;;;5002833;28;20476;-84
2022/04/06 08:08:51;;;;;;;8.82;2.22;;;9.60;99.90;;;;;;5001398;28;20062;-81
2022/04/06 08:11:23;;;;;;;17.48;3.97;;;9.30;99.90;;;;;;5001807;28;20053;-82
2022/04/06 08:13:49;;;;;;;16.00;2.85;;;9.80;99.90;;;;;;5004249;28;20073;-84
2022/04/06 08:16:15;;;;;;;12.57;4.15;;;9.30;99.90;;;;;;4992015;28;20046;-83
2022/04/06 08:18:40;;;;;;;13.30;3.47;;;9.30;99.90;;;;;;4997258;28;20516;-83
2022/04/06 08:21:06;;;;;;;19.50;2.90;;;9.30;99.90;;;;;;5003416;28;20037;-82
2022/04/06 08:23:32;;;;;;;12.48;3.03;;;9.30;99.90;;;;;;5000177;28;20041;-83
2022/04/06 08:25:58;;;;;;;12.10;3.35;;;9.30;99.90;;;;;;5001410;28;20131;-84
2022/04/06 08:28:23;;;;;;;15.35;3.67;;;9.30;99.90;;;;;;5001022;28;20137;-83
2022/04/06 08:30:49;;;;;;;9.35;2.70;;;9.30;99.90;;;;;;4999761;28;20564;-85
2022/04/06 08:33:15;;;;;;;16.05;3.72;;;9.30;99.90;;;;;;5006442;28;20038;-83
2022/04/06 08:35:41;;;;;;;14.00;3.28;;;9.30;99.90;;;;;;4989713;28;20044;-83
2022/04/06 08:38:26;;;;;;;13.30;3.92;;;9.30;99.90;;;;;;5000401;28;20032;-84
2022/04/06 08:40:55;;;;;;;19.38;4.47;;;9.30;99.90;;;;;;4999184;28;20092;-84
2022/04/06 08:43:22;;;;;;;17.92;3.58;;;9.30;99.90;;;;;;4986174;28;20038;-85
2022/04/06 08:45:47;;;;;;;14.55;3.70;;;9.30;99.90;;;;;;4996536;28;20074;-84
2022/04/06 08:48:13;;;;;;;15.85;3.20;;;9.30;99.90;;;;;;4997112;28;20057;-81
2022/04/06 08:50:40;;;;;;;21.38;3.67;;;9.30;99.90;;;;;;5000568;28;20077;-83
2022/04/06 08:53:07;;;;;;;9.20;2.38;;;9.30;99.90;;;;;;5003350;28;20064;-82
2022/04/06 08:55:43;;;;;;;13.07;3.03;;;9.30;99.90;;;;;;4999173;28;20046;-83
2022/04/06 08:58:08;;;;;;;14.02;3.00;;;9.30;99.90;;;;;;5003536;28;20053;-83
2022/04/06 09:00:34;;;;;;;13.50;2.75;;;9.30;99.90;;;;;;5006181;28;20034;-82
2022/04/06 09:03:00;;;;;;;9.63;2.47;;;9.40;99.90;;;;;;5002398;28;20034;-82
2022/04/06 09:05:28;;;;;;;14.65;3.60;;;9.40;99.90;;;;;;5002688;28;20044;-82
2022/04/06 09:07:55;;;;;;;11.98;2.25;;;9.40;99.90;;;;;;5002314;28;20026;-82
2022/04/06 09:10:40;;;;;;;12.60;2.53;;;9.40;99.90;;;;;;4998745;28;20041;-81
2022/04/06 09:13:10;;;;;;;11.15;1.80;;;9.50;99.90;;;;;;4986918;28;20049;-83
2022/04/06 09:15:36;;;;;;;11.75;2.35;;;9.60;99.90;;;;;;5004184;28;20137;-82
2022/04/06 09:18:11;;;;;;;8.57;1.80;;;9.70;99.90;;;;;;5004186;28;20049;-82
2022/04/06 09:20:36;;;;;;;8.73;1.97;;;9.80;99.90;;;;;;5008554;28;20046;-81
2022/04/06 09:23:04;;;;;;;8.65;2.00;;;10.40;99.90;;;;;;5021046;28;20038;-83
2022/04/06 09:25:37;;;;;;;11.60;2.33;;;9.90;99.90;;;;;;5003071;28;20065;-83
2022/04/06 09:28:11;;;;;;;11.82;2.25;;;9.90;99.90;;;;;;5004988;28;20046;-82
2022/04/06 09:30:45;;;;;;;9.80;2.78;;;9.90;99.90;;;;;;5004146;28;20050;-83
2022/04/06 09:33:19;;;;;;;5.63;1.77;;;9.90;99.90;;;;;;5001389;28;20105;-81
2022/04/06 09:35:46;;;;;;;5.90;1.80;;;10.00;99.90;;;;;;5017700;28;20543;-82
2022/04/06 09:38:26;;;;;;;11.52;1.83;;;9.90;99.90;;;;;;5001601;28;20034;-83
2022/04/06 09:41:09;;;;;;;10.02;2.40;;;9.90;99.90;;;;;;5003862;28;20051;-82
2022/04/06 09:43:35;;;;;;;6.32;1.73;;;9.90;99.90;;;;;;5001846;28;20130;-83
2022/04/06 09:49:20;;;;;;;15.07;2.30;;;9.90;99.90;;;;;;5000351;28;20054;-80
2022/04/06 09:51:55;;;;;;;;;;;10.00;99.90;;;;;;5005732;28;20133;-81
2022/04/06 09:54:32;;;;;;;14.48;2.53;;;10.10;99.90;;;;;;5020631;28;19948;-81
2022/04/06 09:57:06;;;;;;;11.77;2.40;;;10.20;99.90;;;;;;5005608;28;20071;-82
2022/04/06 09:59:37;;;;;;;11.30;2.70;;;10.20;99.90;;;;;;5002164;28;20823;-83
2022/04/06 10:02:09;;;;;;;16.25;2.60;;;10.50;99.90;;;;;;5008173;28;20038;-83
2022/04/06 10:04:35;;;;;;;10.18;2.47;;;9.80;99.90;;;;;;5020559;28;20048;-83
2022/04/06 10:07:06;;;;;;;11.43;2.50;;;10.30;99.90;;;;;;5002523;28;20090;-82
2022/04/06 10:09:32;;;;;;;13.35;2.95;;;10.50;99.90;;;;;;4999984;28;20038;-83
2022/04/06 10:12:00;;;;;;;10.07;3.33;;;10.30;99.90;;;;;;5000587;28;20128;-82
2022/04/06 10:14:35;;;;;;;15.25;3.00;;;10.40;99.90;;;;;;5002387;28;20387;-82
2022/04/06 10:17:02;;;;;;;13.77;3.10;;;10.40;99.90;;;;;;5004859;28;20459;-82
2022/04/06 10:19:39;;;;;;;11.27;3.10;;;10.40;99.90;;;;;;4999984;28;20129;-83
2022/04/06 10:22:17;;;;;;;10.35;2.88;;;10.40;99.90;;;;;;5000482;28;20046;-80
2022/04/06 10:25:10;;;;;;;14.43;3.40;;;10.40;99.90;;;;;;5000991;28;20080;-83
2022/04/06 10:27:41;;;;;;;16.50;3.55;;;10.40;99.90;;;;;;5000791;28;20050;-82
2022/04/06 10:30:23;;;;;;;12.50;4.25;;;10.70;99.90;;;;;;5005111;28;20042;-80
2022/04/06 10:32:53;;;;;;;11.40;3.63;;;10.40;99.90;;;;;;4997546;28;20046;-80
2022/04/06 10:35:30;;;;;;;15.55;3.33;;;10.40;99.90;;;;;;4996795;28;20449;-83
2022/04/06 10:37:56;;;;;;;15.52;3.03;;;10.40;99.90;;;;;;4996577;28;20041;-83
2022/04/06 10:40:22;;;;;;;7.95;2.58;;;10.40;99.90;;;;;;4999041;28;20600;-81
2022/04/06 10:42:49;;;;;;;12.88;3.33;;;10.40;99.90;;;;;;5014898;28;20380;-83
2022/04/06 10:45:29;;;;;;;8.68;3.20;;;10.40;99.90;;;;;;5000280;28;20100;-83
2022/04/06 10:48:27;;;;;;;10.18;2.72;;;10.40;99.90;;;;;;5014550;28;20471;-83
2022/04/06 10:51:26;;;;;;;11.48;3.58;;;10.40;99.90;;;;;;5008454;28;20512;-82
2022/04/06 10:53:54;;;;;;;12.35;3.55;;;10.40;99.90;;;;;;5015013;28;20042;-79
2022/04/06 10:56:23;;;;;;;8.35;3.35;;;10.40;99.90;;;;;;5029201;28;20038;-80
2022/04/06 10:59:01;;;;;;;13.52;3.95;;;10.40;99.90;;;;;;5027158;28;20577;-83
2022/04/06 11:01:44;;;;;;;;;;;;;;;;;;;;;
2022/04/06 11:04:24;;;;;;;11.25;3.33;;;10.50;99.90;;;;;;5009673;28;20050;-82
2022/04/06 11:06:59;;;;;;;9.90;3.63;;;10.70;99.90;;;;;;5011870;28;20125;-82
2022/04/06 11:12:32;;;;;;;14.02;4.10;;;10.40;99.90;;;;;;5008208;28;20079;-80
2022/04/06 11:14:58;;;;;;;12.45;4.72;;;10.40;99.90;;;;;;5006810;28;20046;-80
2022/04/06 11:17:42;;;;;;;10.40;4.47;;;10.40;99.90;;;;;;5008690;28;20039;-82
2022/04/06 11:20:15;;;;;;;13.65;4.68;;;10.30;99.90;;;;;;5007902;28;20170;-82
2022/04/06 11:22:53;;;;;;;13.93;5.40;;;10.40;99.90;;;;;;5025155;28;20407;-81
2022/04/06 11:25:26;;;;;;;8.32;4.32;;;10.30;99.90;;;;;;5009519;28;20041;-82
2022/04/06 11:27:54;;;;;;;11.45;5.00;;;10.40;99.90;;;;;;5008691;28;20458;-82
2022/04/06 11:30:23;;;;;;;19.50;5.00;;;10.40;99.90;;;;;;5009230;28;20042;-83
2022/04/06 11:32:57;;;;;;;12.15;5.25;;;10.40;99.90;;;;;;5025209;28;20050;-83
2022/04/06 11:35:52;;;;;;;12.73;5.15;;;10.50;99.90;;;;;;5006905;28;20321;-82
2022/04/06 11:38:17;;;;;;;10.13;4.95;;;11.50;99.90;;;;;;5008049;28;20041;-83
2022/04/06 11:40:43;;;;;;;13.30;4.75;;;10.70;99.90;;;;;;5006907;28;20142;-82
2022/04/06 11:43:11;;;;;;;12.52;4.90;;;10.60;99.90;;;;;;5005821;28;20122;-82
2022/04/06 11:45:44;;;;;;;14.57;5.15;;;10.70;99.90;;;;;;5003195;28;20100;-82
2022/04/06 11:48:14;;;;;;;11.82;4.40;;;10.60;99.90;;;;;;5005394;28;20120;-82
2022/04/06 11:50:41;;;;;;;11.63;4.78;;;10.60;99.90;;;;;;5005807;28;20053;-81
2022/04/06 11:53:15;;;;;;;11.45;4.53;;;10.50;99.90;;;;;;5025299;28;20518;-83
2022/04/06 11:55:54;;;;;;;12.35;6.10;;;10.50;99.90;;;;;;5005507;28;20568;-83
2022/04/06 11:58:38;;;;;;;12.35;5.13;;;10.60;99.90;;;;;;5008239;28;20128;-83
2022/04/06 12:01:08;;;;;;;17.40;5.50;;;10.80;99.90;;;;;;5007066;28;20104;-83
2022/04/06 12:03:39;;;;;;;14.50;5.38;;;10.90;99.90;;;;;;5005853;28;20037;-83
2022/04/06 12:06:11;;;;;;;11.20;4.82;;;11.10;99.90;;;;;;5006949;28;20465;-82
2022/04/06 12:08:46;;;;;;;13.05;5.25;;;11.20;99.90;;;;;;5024267;28;20116;-83
2022/04/06 12:11:12;;;;;;;13.02;5.03;;;11.20;99.90;;;;;;5022842;28;20041;-83
2022/04/06 12:13:40;;;;;;;15.32;5.28;;;11.20;99.90;;;;;;5018390;28;20034;-82
2022/04/06 12:16:06;;;;;;;9.38;4.95;;;11.10;99.90;;;;;;5007111;28;20049;-82
2022/04/06 12:18:39;;;;;;;13.60;5.25;;;11.30;99.90;;;;;;4990629;28;20052;-81
2022/04/06 12:21:22;;;;;;;10.80;4.50;;;11.20;99.90;;;;;;5006115;28;20048;-83
2022/04/06 12:23:51;;;;;;;15.10;5.57;;;11.30;99.90;;;;;;5010502;28;20069;-82
2022/04/06 12:26:18;;;;;;;8.15;4.28;;;11.40;99.90;;;;;;5016691;28;20036;-83
2022/04/06 12:29:02;;;;;;;16.27;5.03;;;11.50;99.90;;;;;;5017187;28;20050;-84
2022/04/06 12:31:35;;;;;;;14.93;5.95;;;12.00;99.90;;;;;;5006773;28;20041;-80
2022/04/06 12:34:01;;;;;;;13.32;5.18;;;11.70;99.90;;;;;;5005720;28;20148;-83
2022/04/06 12:36:30;;;;;;;10.82;4.38;;;11.80;99.90;;;;;;5004071;28;20121;-82
2022/04/06 12:39:15;;;;;;;12.48;5.10;;;12.00;99.90;;;;;;5003076;28;20551;-82
2022/04/06 12:42:05;;;;;;;12.45;4.35;;;11.80;99.90;;;;;;5000414;28;20031;-83
2022/04/06 12:44:38;;;;;;;16.02;5.50;;;11.80;99.90;;;;;;5018351;28;20050;-82
2022/04/06 12:47:17;;;;;;;12.05;5.70;;;12.10;99.90;;;;;;5004691;28;20052;-83
2022/04/06 12:49:43;;;;;;;12.32;3.78;;;11.70;99.90;;;;;;4988775;28;20085;-82
2022/04/06 12:52:23;;;;;;;11.75;4.03;;;11.60;99.90;;;;;;5001270;28;20096;-83
2022/04/06 12:54:52;;;;;;;9.18;3.75;;;11.70;99.90;;;;;;5003339;28;20049;-82
2022/04/06 12:57:36;;;;;;;7.22;3.05;;;11.90;99.90;;;;;;5002387;28;20060;-84
2022/04/06 13:00:09;;;;;;;14.20;4.03;;;11.90;99.90;;;;;;5001949;28;20092;-83
2022/04/06 13:02:58;;;;;;;12.90;4.85;;;12.00;99.90;;;;;;5001003;28;20421;-82
2022/04/06 13:05:34;;;;;;;13.50;5.10;;;11.50;99.90;;;;;;5001630;28;20149;-83
2022/04/06 13:08:05;;;;;;;14.55;4.35;;;12.30;99.90;;;;;;4999174;28;20044;-84
2022/04/06 13:10:38;;;;;;;11.15;4.53;;;11.70;99.90;;;;;;5002024;28;20049;-83
2022/04/06 13:13:04;;;;;;;13.43;4.30;;;11.70;99.90;;;;;;5005526;28;20042;-83
2022/04/06 13:15:36;;;;;;;7.47;3.33;;;11.70;99.90;;;;;;4998993;28;21601;-84
2022/04/06 13:18:07;;;;;;;12.60;4.03;;;11.70;99.90;;;;;;5000728;28;20045;-82
2022/04/06 13:20:34;;;;;;;11.98;4.20;;;11.80;99.90;;;;;;4986892;28;20052;-82
2022/04/06 13:23:00;;;;;;;8.68;4.50;;;11.70;99.90;;;;;;5018632;28;20049;-83
2022/04/06 13:25:35;;;;;;;13.30;5.03;;;11.60;99.90;;;;;;5002578;28;20050;-84
2022/04/06 13:28:09;;;;;;;9.68;4.78;;;11.80;99.90;;;;;;5013882;28;20034;-83
2022/04/06 13:30:40;;;;;;;11.85;5.50;;;11.60;99.90;;;;;;4981860;28;20513;-82
2022/04/06 13:33:06;;;;;;;9.52;5.55;;;11.50;99.90;;;;;;5001026;28;20056;-82
2022/04/06 13:35:32;;;;;;;8.68;4.82;;;11.80;99.90;;;;;;5001750;28;20149;-83
2022/04/06 13:37:59;;;;;;;10.18;4.00;;;11.50;99.90;;;;;;5002515;28;20757;-84
2022/04/06 13:40:25;;;;;;;6.82;4.13;;;11.70;99.90;;;;;;5002317;28;20045;-83
2022/04/06 13:42:54;;;;;;;7.40;4.40;;;11.00;99.90;;;;;;5005356;28;20081;-83
2022/04/06 13:45:20;;;;;;;8.70;3.55;;;11.40;99.90;;;;;;5003443;28;20405;-83
2022/04/06 13:47:46;;;;;;;9.57;4.55;;;11.30;99.90;;;;;;5004768;28;20049;-83
2022/04/06 13:50:11;;;;;;;8.10;4.68;;;11.30;99.90;;;;;;4987742;28;20098;-83